| time (UTC) | temp F | wind direction | speed knots | gust knots | rain 1hr in | rain 24hr in | rain mn in | humidity % | barometer mb |
| 20260510153059 | 64 | 160 | 0.0 | 3.5 | 0.00 | 0.00 | 0.00 | 74 | 1014.9 |
| 20260510151528 | 63 | 160 | 0.0 | 3.5 | 0.00 | 0.00 | 0.00 | 74 | 1014.8 |
| 20260510150028 | 63 | 160 | 0.0 | 7.0 | 0.00 | 0.00 | 0.00 | 75 | 1015.0 |
| 20260510144608 | 63 | 159 | 0.0 | 7.8 | 0.00 | 0.00 | 0.00 | 76 | 1015.3 |
| 20260510143103 | 63 | 159 | 0.0 | 1.7 | 0.00 | 0.00 | 0.00 | 76 | 1015.3 |
| 20260510141554 | 63 | 159 | 0.0 | 6.1 | 0.00 | 0.00 | 0.00 | 75 | 1015.5 |
| 20260510140053 | 64 | 159 | 0.0 | 6.1 | 0.00 | 0.00 | 0.00 | 73 | 1015.2 |
| 20260510134552 | 64 | 159 | 0.0 | 6.1 | 0.00 | 0.00 | 0.00 | 71 | 1015.2 |
| 20260510133048 | 65 | 159 | 0.0 | 0.9 | 0.00 | 0.00 | 0.00 | 76 | 1014.7 |
| 20260510131532 | 65 | 158 | 0.0 | 0.0 | 0.00 | 0.00 | 0.00 | 76 | 1014.3 |
| 20260510130014 | 65 | 159 | 0.0 | 0.0 | 0.00 | 0.00 | 0.00 | 76 | 1014.1 |
| 20260510124541 | 64 | 158 | 0.0 | 0.0 | 0.00 | 0.00 | 0.00 | 78 | 1013.9 |
| 20260510123038 | 61 | 159 | 0.0 | 0.0 | 0.00 | 0.00 | 0.00 | 81 | 1013.6 |
| 20260510121503 | 61 | 159 | 0.0 | 0.0 | 0.00 | 0.00 | 0.00 | 80 | 1013.4 |
| 20260510120100 | 59 | 159 | 0.0 | 0.0 | 0.00 | 0.00 | 0.00 | 81 | 1013.1 |
| 20260510114526 | 0 | 0.0 | 0.0 | 0.00 | 0.00 | 0.00 | 1013.1 | ||
| 20260510113022 | 0 | 0.0 | 0.0 | 0.00 | 0.00 | 0.00 | 1013.0 | ||
| 20260510111548 | 0 | 0.0 | 0.0 | 0.00 | 0.00 | 0.00 | 1012.9 | ||
| 20260510110043 | 0 | 0.0 | 0.0 | 0.00 | 0.00 | 0.00 | 1012.8 | ||
| 20260510104508 | 0 | 0.0 | 0.0 | 0.00 | 0.00 | 0.00 | 1012.6 | ||
| 20260510103008 | 58 | 159 | 0.0 | 0.0 | 0.00 | 0.00 | 0.00 | 80 | 1012.7 |
| 20260510101537 | 59 | 159 | 0.0 | 0.0 | 0.00 | 0.00 | 0.00 | 77 | 1012.6 |
| 20260510100036 | 60 | 159 | 0.0 | 0.0 | 0.00 | 0.00 | 0.00 | 75 | 1012.5 |
| 20260510094506 | 61 | 159 | 0.0 | 0.0 | 0.00 | 0.00 | 0.00 | 74 | 1012.2 |
| 20260510093001 | 61 | 159 | 0.0 | 0.0 | 0.00 | 0.00 | 0.00 | 72 | 1011.9 |
| 20260510091532 | 60 | 159 | 0.0 | 0.0 | 0.00 | 0.00 | 0.00 | 73 | 1011.7 |
| 20260510090031 | 59 | 159 | 0.0 | 0.0 | 0.00 | 0.00 | 0.00 | 75 | 1011.7 |
| 20260510084601 | 59 | 159 | 0.0 | 0.0 | 0.00 | 0.00 | 0.00 | 77 | 1011.6 |
| 20260510083059 | 60 | 159 | 0.0 | 0.0 | 0.00 | 0.00 | 0.00 | 73 | 1011.4 |
| 20260510081527 | 61 | 159 | 0.0 | 0.0 | 0.00 | 0.00 | 0.00 | 70 | 1011.3 |
| 20260510080032 | 62 | 159 | 0.0 | 2.6 | 0.00 | 0.00 | 0.00 | 67 | 1010.5 |
| 20260510074557 | 62 | 159 | 0.0 | 0.0 | 0.00 | 0.00 | 0.00 | 66 | 1010.7 |
| 20260510073114 | 62 | 159 | 0.0 | 0.0 | 0.00 | 0.00 | 0.00 | 66 | 1011.0 |
| 20260510071526 | 60 | 159 | 0.0 | 0.0 | 0.00 | 0.00 | 0.00 | 71 | 1011.1 |
| 20260510070025 | 59 | 159 | 0.0 | 0.0 | 0.00 | 0.00 | 0.00 | 73 | 1011.0 |
| 20260510064634 | 59 | 158 | 0.0 | 0.9 | 0.00 | 0.00 | 0.00 | 75 | 1011.2 |
| 20260510063054 | 58 | 159 | 0.0 | 0.0 | 0.00 | 0.00 | 0.00 | 78 | 1011.5 |
| 20260510061524 | 58 | 158 | 0.0 | 0.0 | 0.00 | 0.00 | 0.00 | 78 | 1011.5 |
| 20260510060024 | 58 | 159 | 0.0 | 0.0 | 0.00 | 0.00 | 0.00 | 78 | 1011.5 |
| 20260510054625 | 58 | 159 | 0.0 | 0.0 | 0.00 | 0.00 | 0.00 | 79 | 1011.5 |
| 20260510053054 | 57 | 159 | 0.0 | 0.0 | 0.00 | 0.00 | 0.00 | 79 | 1011.6 |
| 20260510051554 | 58 | 159 | 0.0 | 0.0 | 0.00 | 0.00 | 0.00 | 78 | 1011.4 |
| 20260510050020 | 59 | 159 | 0.0 | 0.0 | 0.00 | 0.00 | 0.00 | 75 | 1011.3 |
| 20260510044518 | 59 | 159 | 0.0 | 0.0 | 0.00 | 0.00 | 0.00 | 76 | 1011.3 |
| 20260510043048 | 59 | 159 | 0.0 | 0.0 | 0.00 | 0.00 | 0.00 | 75 | 1011.3 |
| 20260510041549 | 60 | 159 | 0.0 | 0.0 | 0.00 | 0.00 | 0.00 | 72 | 1011.1 |
| 20260510040018 | 60 | 159 | 0.0 | 0.0 | 0.00 | 0.00 | 0.00 | 72 | 1011.3 |
| 20260510034515 | 61 | 158 | 0.0 | 0.0 | 0.00 | 0.00 | 0.00 | 70 | 1010.9 |
| 20260510033048 | 62 | 159 | 0.0 | 0.0 | 0.00 | 0.00 | 0.00 | 64 | 1010.5 |
| 20260510031541 | 63 | 159 | 0.0 | 0.0 | 0.00 | 0.00 | 0.00 | 62 | 1010.4 |
| 20260510030010 | 63 | 159 | 0.0 | 0.0 | 0.00 | 0.00 | 0.00 | 63 | 1010.3 |
| 20260510024509 | 65 | 159 | 0.0 | 0.0 | 0.00 | 0.00 | 0.00 | 62 | 1010.2 |
| 20260510023037 | 65 | 158 | 0.0 | 0.0 | 0.00 | 0.00 | 0.00 | 57 | 1009.7 |
| 20260510021536 | 65 | 159 | 0.0 | 0.0 | 0.00 | 0.00 | 0.00 | 58 | 1009.4 |
| 20260510020007 | 67 | 159 | 0.0 | 0.0 | 0.00 | 0.00 | 0.00 | 55 | 1009.0 |
| 20260510014506 | 69 | 159 | 0.0 | 0.0 | 0.00 | 0.00 | 0.00 | 54 | 1008.8 |
| 20260510013036 | 69 | 158 | 0.0 | 2.6 | 0.00 | 0.00 | 0.00 | 53 | 1008.6 |
| 20260510011537 | 72 | 159 | 0.0 | 0.0 | 0.00 | 0.00 | 0.00 | 48 | 1008.3 |
| 20260510010005 | 74 | 158 | 0.0 | 0.0 | 0.00 | 0.00 | 0.00 | 39 | 1008.2 |
| 20260510004505 | 75 | 159 | 0.0 | 0.0 | 0.00 | 0.00 | 0.00 | 36 | 1008.0 |
| 20260510003036 | 77 | 158 | 0.0 | 0.0 | 0.00 | 0.00 | 0.00 | 34 | 1008.0 |
| 20260510001533 | 79 | 159 | 0.0 | 0.0 | 0.00 | 0.00 | 0.00 | 32 | 1008.1 |
| 20260510000003 | 78 | 158 | 0.0 | 0.0 | 0.00 | 0.00 | 0.00 | 32 | 1008.1 |
| 20260509234504 | 79 | 159 | 0.0 | 0.0 | 0.00 | 0.00 | 0.00 | 38 | 1008.1 |
| 20260509233034 | 78 | 158 | 0.0 | 0.0 | 0.00 | 0.00 | 0.00 | 36 | 1008.2 |
| 20260509231534 | 80 | 158 | 0.0 | 0.0 | 0.00 | 0.00 | 0.00 | 31 | 1008.1 |
| 20260509230109 | 79 | 158 | 0.0 | 0.0 | 0.00 | 0.00 | 0.00 | 33 | 1008.3 |
| 20260509224600 | 79 | 158 | 0.0 | 0.0 | 0.00 | 0.00 | 0.00 | 31 | 1008.3 |
| 20260509223030 | 82 | 158 | 0.0 | 0.0 | 0.00 | 0.00 | 0.00 | 29 | 1008.3 |
| 20260509221529 | 81 | 158 | 0.0 | 1.7 | 0.00 | 0.00 | 0.00 | 29 | 1008.2 |
| 20260509220100 | 81 | 159 | 0.0 | 3.5 | 0.00 | 0.00 | 0.00 | 29 | 1008.2 |
| 20260509214604 | 81 | 158 | 0.0 | 3.5 | 0.00 | 0.00 | 0.00 | 29 | 1008.3 |
| 20260509213055 | 82 | 159 | 0.0 | 2.6 | 0.00 | 0.00 | 0.00 | 28 | 1008.5 |
| 20260509211558 | 82 | 159 | 0.0 | 0.0 | 0.00 | 0.00 | 0.00 | 30 | 1008.5 |
| 20260509210056 | 82 | 158 | 0.0 | 0.0 | 0.00 | 0.00 | 0.00 | 27 | 1008.8 |
| 20260509204551 | 81 | 159 | 0.0 | 0.9 | 0.00 | 0.00 | 0.00 | 28 | 1008.7 |
| 20260509203032 | 81 | 159 | 0.0 | 0.0 | 0.00 | 0.00 | 0.00 | 28 | 1008.9 |
| 20260509201521 | 80 | 159 | 0.0 | 0.0 | 0.00 | 0.00 | 0.00 | 28 | 1008.9 |
| 20260509200103 | 79 | 159 | 0.0 | 0.0 | 0.00 | 0.00 | 0.00 | 29 | 1009.0 |
| 20260509194554 | 81 | 159 | 0.0 | 2.6 | 0.00 | 0.00 | 0.00 | 26 | 1009.0 |
| 20260509193047 | 81 | 159 | 0.0 | 0.9 | 0.00 | 0.00 | 0.00 | 28 | 1009.3 |
| 20260509191546 | 82 | 158 | 0.0 | 0.0 | 0.00 | 0.00 | 0.00 | 32 | 1009.3 |
| 20260509190043 | 79 | 159 | 0.0 | 0.0 | 0.00 | 0.00 | 0.00 | 31 | 1009.4 |
| 20260509184542 | 78 | 158 | 0.0 | 1.7 | 0.00 | 0.00 | 0.00 | 30 | 1009.5 |
| 20260509183010 | 80 | 159 | 0.0 | 0.0 | 0.00 | 0.00 | 0.00 | 26 | 1009.5 |
| 20260509181509 | 78 | 159 | 0.0 | 2.6 | 0.00 | 0.00 | 0.00 | 29 | 1009.5 |
| 20260509180037 | 78 | 158 | 0.0 | 5.2 | 0.00 | 0.00 | 0.00 | 34 | 1009.5 |
| 20260509174547 | 77 | 158 | 0.0 | 0.9 | 0.00 | 0.00 | 0.00 | 31 | 1009.6 |
| 20260509173006 | 79 | 158 | 0.0 | 0.0 | 0.00 | 0.00 | 0.00 | 35 | 1009.7 |
| 20260509171507 | 77 | 158 | 0.0 | 0.0 | 0.00 | 0.00 | 0.00 | 39 | 1009.7 |
| 20260509170035 | 79 | 158 | 0.0 | 1.7 | 0.00 | 0.00 | 0.00 | 38 | 1009.7 |
| 20260509164534 | 78 | 158 | 0.0 | 0.0 | 0.00 | 0.00 | 0.00 | 40 | 1009.8 |
| 20260509163001 | 77 | 158 | 0.0 | 4.3 | 0.00 | 0.00 | 0.00 | 42 | 1009.7 |
| 20260509161603 | 76 | 158 | 0.0 | 5.2 | 0.00 | 0.00 | 0.00 | 45 | 1009.8 |
| 20260509160025 | 75 | 158 | 0.0 | 2.6 | 0.00 | 0.00 | 0.00 | 53 | 1009.8 |
| 20260509154522 | 74 | 158 | 0.0 | 2.6 | 0.00 | 0.00 | 0.00 | 55 | 1009.6 |